Time;durP1;ratioP1;P1;durP2;ratioP2;P2;SDS_P1;SDS_P2;PMS_P1;PMS_P2;Temp;Humidity;BMP_temperature;BMP_pressure;BME280_temperature;BME280_humidity;BME280_pressure;Samples;Min_cycle;Max_cycle;Signal;HPM_P1;HPM_P2
2022/08/15 00:00:41;;;;;;;4.45;3.00;;;22.40;99.90;;;;;;5092448;28;20469;-72
2022/08/15 00:03:19;;;;;;;5.30;3.33;;;22.30;99.90;;;;;;5093468;28;20473;-72
2022/08/15 00:05:45;;;;;;;3.58;2.85;;;22.30;99.90;;;;;;5093857;28;20034;-72
2022/08/15 00:08:11;;;;;;;4.63;3.10;;;22.30;99.90;;;;;;5093633;28;20131;-72
2022/08/15 00:10:36;;;;;;;5.53;2.80;;;22.20;99.90;;;;;;5094140;28;20024;-72
2022/08/15 00:13:12;;;;;;;3.72;2.85;;;22.30;99.90;;;;;;5093335;28;20028;-72
2022/08/15 00:15:39;;;;;;;4.07;2.88;;;22.30;99.90;;;;;;5092029;28;20035;-72
2022/08/15 00:18:05;;;;;;;6.68;3.03;;;22.40;99.90;;;;;;5093363;28;20099;-72
2022/08/15 00:20:31;;;;;;;4.60;3.35;;;22.50;99.90;;;;;;5092173;28;20099;-72
2022/08/15 00:22:57;;;;;;;3.67;2.83;;;22.50;99.90;;;;;;5093371;28;20464;-72
2022/08/15 00:25:22;;;;;;;5.20;3.17;;;22.60;99.90;;;;;;5093899;28;20089;-72
2022/08/15 00:27:48;;;;;;;3.58;2.97;;;22.70;99.90;;;;;;5093232;28;20051;-72
2022/08/15 00:30:14;;;;;;;2.90;2.35;;;22.70;99.90;;;;;;5093414;28;20024;-72
2022/08/15 00:32:39;;;;;;;5.80;3.20;;;22.70;99.90;;;;;;5093422;28;20024;-72
2022/08/15 00:35:35;;;;;;;4.10;3.20;;;22.70;99.90;;;;;;5093246;28;20032;-72
2022/08/15 00:37:55;;;;;;;3.55;2.80;;;22.70;99.90;;;;;;5093140;28;20036;-73
2022/08/15 00:40:23;;;;;;;5.80;3.53;;;22.70;99.90;;;;;;5093319;28;20039;-73
2022/08/15 00:42:48;;;;;;;7.10;3.50;;;22.70;99.90;;;;;;5091923;28;20114;-72
2022/08/15 00:45:14;;;;;;;6.18;3.28;;;22.80;99.90;;;;;;5093241;28;20097;-72
2022/08/15 00:47:41;;;;;;;3.90;3.42;;;22.70;99.90;;;;;;5091896;28;20024;-72
2022/08/15 00:50:12;;;;;;;6.13;3.03;;;22.70;99.90;;;;;;5093339;28;20017;-72
2022/08/15 00:52:37;;;;;;;3.83;2.97;;;22.70;99.90;;;;;;5093353;28;20030;-72
2022/08/15 00:55:10;;;;;;;3.33;2.88;;;22.70;99.90;;;;;;5093617;28;20424;-72
2022/08/15 00:57:40;;;;;;;5.38;3.05;;;22.70;99.90;;;;;;5093372;28;20099;-72
2022/08/15 01:00:13;;;;;;;8.50;3.97;;;22.60;99.90;;;;;;5093117;28;20052;-72
2022/08/15 01:02:38;;;;;;;4.38;3.42;;;22.70;99.90;;;;;;5096231;28;20035;-72
2022/08/15 01:05:13;;;;;;;4.72;3.55;;;22.70;99.90;;;;;;5096871;28;20027;-72
2022/08/15 01:07:39;;;;;;;3.63;2.95;;;22.70;99.90;;;;;;5096819;28;20024;-72
2022/08/15 01:10:07;;;;;;;3.40;2.40;;;22.70;99.90;;;;;;5097720;28;20028;-72
2022/08/15 01:12:33;;;;;;;4.57;2.97;;;22.70;99.90;;;;;;5096540;28;20032;-72
2022/08/15 01:15:03;;;;;;;6.53;3.60;;;22.70;99.90;;;;;;5095224;28;20031;-72
2022/08/15 01:17:31;;;;;;;4.40;2.90;;;22.70;99.90;;;;;;5096914;28;20016;-72
2022/08/15 01:20:09;;;;;;;4.68;3.03;;;22.70;99.90;;;;;;5096830;28;20409;-72
2022/08/15 01:22:49;;;;;;;2.47;2.13;;;22.70;99.90;;;;;;5095296;28;20023;-72
2022/08/15 01:25:25;;;;;;;3.72;3.30;;;22.70;99.90;;;;;;5096697;28;20032;-72
2022/08/15 01:28:09;;;;;;;3.30;2.83;;;22.70;99.90;;;;;;5096489;28;20051;-72
2022/08/15 01:30:44;;;;;;;4.43;3.08;;;22.70;99.90;;;;;;5096454;28;20024;-72
2022/08/15 01:33:11;;;;;;;4.65;2.92;;;22.70;99.90;;;;;;5096192;28;20036;-72
2022/08/15 01:35:38;;;;;;;3.08;2.63;;;22.70;99.90;;;;;;5096213;28;20385;-72
2022/08/15 01:38:11;;;;;;;5.93;2.83;;;22.70;99.90;;;;;;5096384;28;20016;-71
2022/08/15 01:41:17;;;;;;;3.38;2.90;;;22.70;99.90;;;;;;5095042;28;20024;-72
2022/08/15 01:43:56;;;;;;;4.47;3.15;;;22.70;99.90;;;;;;5096188;28;20105;-72
2022/08/15 01:46:25;;;;;;;3.58;3.17;;;22.70;99.90;;;;;;5094864;28;20038;-72
2022/08/15 01:48:57;;;;;;;3.55;2.88;;;22.60;99.90;;;;;;5096073;28;20020;-72
2022/08/15 01:51:23;;;;;;;5.15;2.60;;;22.60;99.90;;;;;;5096158;28;20034;-72
2022/08/15 01:53:54;;;;;;;5.00;2.47;;;22.70;99.90;;;;;;5095881;28;20525;-72
2022/08/15 01:56:29;;;;;;;4.90;3.75;;;22.70;99.90;;;;;;5094607;28;20028;-72
2022/08/15 01:58:57;;;;;;;3.80;3.40;;;22.70;99.90;;;;;;5094656;28;20044;-72
2022/08/15 02:01:36;;;;;;;5.57;3.75;;;22.80;99.90;;;;;;5095953;28;20376;-72
2022/08/15 02:04:02;;;;;;;5.68;3.10;;;22.80;99.90;;;;;;5095836;28;20024;-72
2022/08/15 02:06:29;;;;;;;3.40;2.90;;;22.80;99.90;;;;;;5095731;28;20024;-72
2022/08/15 02:08:56;;;;;;;4.50;2.75;;;22.80;99.90;;;;;;5095707;28;20016;-72
2022/08/15 02:11:25;;;;;;;4.47;2.75;;;22.80;99.90;;;;;;5095572;28;20024;-72
2022/08/15 02:13:54;;;;;;;3.75;3.25;;;22.80;99.90;;;;;;5095271;28;20082;-72
2022/08/15 02:16:20;;;;;;;3.10;2.65;;;22.80;99.90;;;;;;5095622;28;20024;-72
2022/08/15 02:18:46;;;;;;;3.60;3.10;;;22.80;99.90;;;;;;5095506;28;20024;-72
2022/08/15 02:21:12;;;;;;;6.45;3.00;;;22.70;99.90;;;;;;5094102;28;20534;-72
2022/08/15 02:23:38;;;;;;;4.63;2.92;;;22.70;99.90;;;;;;5095371;28;20077;-72
2022/08/15 02:26:07;;;;;;;5.93;2.70;;;22.60;99.90;;;;;;5094000;28;20024;-72
2022/08/15 02:28:33;;;;;;;;;;;22.60;99.90;;;;;;5095557;28;20032;-72
2022/08/15 02:30:58;;;;;;;2.67;2.45;;;22.60;99.90;;;;;;5095460;28;19982;-72
2022/08/15 02:33:24;;;;;;;4.00;2.60;;;22.60;99.90;;;;;;5095331;28;20016;-72
2022/08/15 02:35:51;;;;;;;3.92;3.03;;;22.50;99.90;;;;;;5093477;28;20024;-72
2022/08/15 02:38:17;;;;;;;4.00;2.97;;;22.50;99.90;;;;;;5094930;28;20021;-72
2022/08/15 02:40:43;;;;;;;6.63;2.50;;;22.60;99.90;;;;;;5093825;28;20024;-72
2022/08/15 02:43:12;;;;;;;4.80;2.45;;;22.60;99.90;;;;;;5094918;28;20390;-72
2022/08/15 02:45:38;;;;;;;;;;;22.50;99.90;;;;;;5095352;28;20020;-72
2022/08/15 02:48:05;;;;;;;4.03;3.05;;;22.50;99.90;;;;;;5094931;28;19927;-72
2022/08/15 02:50:32;;;;;;;5.53;3.00;;;22.40;99.90;;;;;;5094989;28;20103;-72
2022/08/15 02:52:58;;;;;;;3.30;3.00;;;22.40;99.90;;;;;;5094785;28;20507;-72
2022/08/15 02:55:23;;;;;;;4.70;2.97;;;22.40;99.90;;;;;;5093484;28;20016;-72
2022/08/15 02:57:49;;;;;;;3.42;2.75;;;22.30;99.90;;;;;;5094474;28;20016;-72
2022/08/15 03:00:16;;;;;;;3.38;2.45;;;22.30;99.90;;;;;;5095172;28;20109;-72
2022/08/15 03:02:57;;;;;;;6.55;3.67;;;22.20;99.90;;;;;;5094637;28;20024;-72
2022/08/15 03:05:27;;;;;;;4.05;3.38;;;22.20;99.90;;;;;;5094824;28;20028;-72
2022/08/15 03:07:53;;;;;;;4.97;3.33;;;22.10;99.90;;;;;;5095044;28;20426;-72
2022/08/15 03:10:19;;;;;;;5.95;2.78;;;22.10;99.90;;;;;;5094768;28;20030;-72
2022/08/15 03:12:57;;;;;;;4.68;3.15;;;22.00;99.90;;;;;;5094893;28;20115;-72
2022/08/15 03:15:25;;;;;;;4.13;2.83;;;21.90;99.90;;;;;;5094221;28;20042;-72
2022/08/15 03:17:51;;;;;;;4.45;3.10;;;21.90;99.90;;;;;;5094420;28;20262;-72
2022/08/15 03:20:19;;;;;;;4.75;2.75;;;21.80;99.90;;;;;;5094889;28;20050;-72
2022/08/15 03:22:48;;;;;;;21.25;3.15;;;21.80;99.90;;;;;;5094741;28;20012;-72
2022/08/15 03:25:16;;;;;;;5.00;3.25;;;21.70;99.90;;;;;;5093665;28;20521;-72
2022/08/15 03:27:42;;;;;;;5.18;3.15;;;21.70;99.90;;;;;;5092867;28;20030;-72
2022/08/15 03:30:10;;;;;;;6.15;2.63;;;21.70;99.90;;;;;;5094440;28;20447;-72
2022/08/15 03:33:02;;;;;;;2.80;2.40;;;21.70;99.90;;;;;;5094063;28;20020;-72
2022/08/15 03:35:31;;;;;;;4.28;3.33;;;21.80;99.90;;;;;;5093043;28;20040;-72
2022/08/15 03:37:58;;;;;;;3.88;2.97;;;21.80;99.90;;;;;;5092712;28;20054;-72
2022/08/15 03:40:25;;;;;;;5.18;2.90;;;21.80;99.90;;;;;;5094214;28;20111;-72
2022/08/15 03:42:59;;;;;;;4.38;3.10;;;21.80;99.90;;;;;;5094001;28;20035;-72
2022/08/15 03:45:26;;;;;;;5.20;3.45;;;21.80;99.90;;;;;;5094509;28;20032;-72
2022/08/15 03:47:53;;;;;;;3.83;3.13;;;21.80;99.90;;;;;;5092458;28;20038;-72
2022/08/15 03:50:19;;;;;;;4.40;3.03;;;21.80;99.90;;;;;;5094016;28;20095;-72
2022/08/15 03:53:00;;;;;;;4.97;3.40;;;21.80;99.90;;;;;;5093894;28;20028;-72
2022/08/15 03:55:28;;;;;;;4.47;3.33;;;21.80;99.90;;;;;;5093675;28;20036;-72
2022/08/15 03:57:54;;;;;;;5.75;2.78;;;21.90;99.90;;;;;;5093681;28;20024;-72
2022/08/15 04:00:27;;;;;;;5.10;3.60;;;21.90;99.90;;;;;;5093681;28;20028;-72
2022/08/15 04:02:53;;;;;;;4.65;3.47;;;21.90;99.90;;;;;;5092369;28;20028;-72
2022/08/15 04:05:20;;;;;;;4.40;2.92;;;21.90;99.90;;;;;;5093539;28;20024;-72
2022/08/15 04:07:46;;;;;;;5.38;3.72;;;21.90;99.90;;;;;;5092297;28;20024;-72
2022/08/15 04:10:16;;;;;;;4.47;3.10;;;21.90;99.90;;;;;;5093880;28;20052;-72
2022/08/15 04:12:43;;;;;;;4.75;3.53;;;21.90;99.90;;;;;;5093944;28;20054;-72
2022/08/15 04:15:12;;;;;;;5.57;3.80;;;21.90;99.90;;;;;;5093342;28;20031;-72
2022/08/15 04:17:37;;;;;;;4.82;3.10;;;21.90;99.90;;;;;;5093755;28;20542;-72
2022/08/15 04:20:05;;;;;;;5.75;3.17;;;21.90;99.90;;;;;;5093459;28;20048;-72
2022/08/15 04:22:43;;;;;;;4.05;3.17;;;21.90;99.90;;;;;;5093358;28;20027;-72
2022/08/15 04:25:11;;;;;;;4.32;2.88;;;21.90;99.90;;;;;;5093554;28;20024;-72
2022/08/15 04:27:37;;;;;;;5.10;4.10;;;21.90;99.90;;;;;;5092113;28;20020;-72
2022/08/15 04:30:05;;;;;;;3.85;3.05;;;21.90;99.90;;;;;;5092395;28;20034;-72
2022/08/15 04:32:31;;;;;;;3.22;2.83;;;21.80;99.90;;;;;;5093625;28;20020;-72
2022/08/15 04:34:58;;;;;;;5.22;3.65;;;21.80;99.90;;;;;;5093368;28;20024;-72
2022/08/15 04:37:25;;;;;;;5.10;2.87;;;21.80;99.90;;;;;;5096656;28;20028;-72
2022/08/15 04:39:51;;;;;;;6.03;3.30;;;21.80;99.90;;;;;;5096183;28;20119;-72
2022/08/15 04:42:19;;;;;;;4.30;3.10;;;21.70;99.90;;;;;;5097262;28;20060;-72
2022/08/15 04:44:48;;;;;;;7.53;4.18;;;21.70;99.90;;;;;;5096030;28;20423;-72
2022/08/15 04:47:15;;;;;;;4.80;4.18;;;21.70;99.90;;;;;;5097286;28;20484;-72
2022/08/15 04:49:42;;;;;;;6.97;4.38;;;21.60;99.90;;;;;;5097331;28;20063;-72
2022/08/15 04:52:12;;;;;;;6.07;4.53;;;21.60;99.90;;;;;;5097087;28;20032;-72
2022/08/15 04:54:38;;;;;;;5.50;4.18;;;21.60;99.90;;;;;;5095782;28;20396;-72
2022/08/15 04:57:04;;;;;;;7.15;4.72;;;21.60;99.90;;;;;;5095904;28;20389;-72
2022/08/15 04:59:30;;;;;;;13.27;5.60;;;21.70;99.90;;;;;;5097017;28;20444;-72
2022/08/15 05:01:56;;;;;;;8.18;5.20;;;21.60;99.90;;;;;;5097020;28;20096;-72
2022/08/15 05:04:22;;;;;;;9.68;5.32;;;21.70;99.90;;;;;;5096936;28;20012;-72
2022/08/15 05:06:48;;;;;;;7.00;4.70;;;21.70;99.90;;;;;;5097113;28;20020;-72
2022/08/15 05:09:13;;;;;;;7.65;5.35;;;21.60;99.90;;;;;;5097363;28;20046;-72
2022/08/15 05:11:39;;;;;;;9.27;4.40;;;21.60;99.90;;;;;;5096716;28;20374;-72
2022/08/15 05:14:05;;;;;;;10.68;4.78;;;21.60;99.90;;;;;;5096745;28;20035;-72
2022/08/15 05:16:33;;;;;;;6.78;4.57;;;21.60;99.90;;;;;;5096757;28;20066;-72
2022/08/15 05:18:59;;;;;;;6.97;5.05;;;21.60;99.90;;;;;;5097203;28;20027;-72
2022/08/15 05:21:26;;;;;;;6.95;5.47;;;21.70;99.90;;;;;;5096530;28;20103;-72
2022/08/15 05:23:52;;;;;;;8.07;4.90;;;21.80;99.90;;;;;;5096410;28;20020;-72
2022/08/15 05:26:18;;;;;;;6.20;5.28;;;21.80;99.90;;;;;;5096850;28;20027;-73
2022/08/15 05:28:43;;;;;;;7.20;4.97;;;21.90;99.90;;;;;;5096417;28;20098;-72
2022/08/15 05:31:10;;;;;;;7.07;4.55;;;21.90;99.90;;;;;;5096557;28;20024;-72
2022/08/15 05:33:37;;;;;;;6.63;4.50;;;21.90;99.90;;;;;;5096206;28;20480;-72
2022/08/15 05:36:05;;;;;;;5.47;4.15;;;22.00;99.90;;;;;;5096149;28;20028;-72
2022/08/15 05:38:38;;;;;;;7.93;4.15;;;22.00;99.90;;;;;;5096244;28;20058;-72
2022/08/15 05:41:16;;;;;;;8.30;3.72;;;22.10;99.90;;;;;;5097436;28;20016;-73
2022/08/15 05:44:03;;;;;;;7.03;3.30;;;22.10;99.90;;;;;;5094946;28;20031;-73
2022/08/15 05:47:04;;;;;;;8.07;3.92;;;22.10;99.90;;;;;;5096199;28;20036;-73
2022/08/15 05:49:47;;;;;;;7.10;3.35;;;22.20;99.90;;;;;;5095077;28;20525;-73
2022/08/15 05:52:49;;;;;;;5.50;3.05;;;22.20;99.90;;;;;;5096243;28;20028;-73
2022/08/15 05:55:27;;;;;;;9.05;3.83;;;22.30;99.90;;;;;;5096075;28;20420;-74
2022/08/15 05:58:23;;;;;;;3.85;2.72;;;22.40;99.90;;;;;;5096098;28;20032;-74
2022/08/15 06:01:33;;;;;;;6.90;3.67;;;22.50;99.90;;;;;;5094775;28;20050;-74
2022/08/15 06:04:29;;;;;;;4.20;3.00;;;22.70;99.90;;;;;;5093475;28;20048;-74
2022/08/15 06:06:56;;;;;;;15.23;2.00;;;22.90;99.90;;;;;;5095720;28;20028;-74
2022/08/15 06:09:31;;;;;;;5.90;2.60;;;23.10;99.90;;;;;;5095751;28;20024;-73
2022/08/15 06:12:00;;;;;;;6.78;3.30;;;23.30;99.90;;;;;;5094229;28;20034;-72
2022/08/15 06:14:33;;;;;;;4.35;2.70;;;23.40;99.90;;;;;;5095580;28;20032;-73
2022/08/15 06:17:28;;;;;;;3.15;2.30;;;23.60;99.90;;;;;;5095535;28;20013;-73
2022/08/15 06:19:57;;;;;;;6.88;1.25;;;23.80;99.90;;;;;;5095445;28;20016;-73
2022/08/15 06:22:29;;;;;;;3.25;1.50;;;24.00;99.90;;;;;;5095498;28;20028;-73
2022/08/15 06:25:21;;;;;;;2.88;1.25;;;24.10;99.90;;;;;;5095653;28;20035;-73
2022/08/15 06:27:46;;;;;;;1.13;0.85;;;24.20;99.90;;;;;;5095764;28;20054;-73
2022/08/15 06:30:19;;;;;;;2.90;0.43;;;24.40;99.90;;;;;;5093983;28;20117;-73
2022/08/15 06:32:55;;;;;;;2.50;0.80;;;24.50;99.90;;;;;;5095166;28;20026;-73
2022/08/15 06:35:45;;;;;;;1.25;0.77;;;24.50;99.90;;;;;;5095569;28;20020;-73
2022/08/15 06:38:30;;;;;;;2.30;0.28;;;24.60;99.90;;;;;;5095223;28;20019;-73
2022/08/15 06:41:06;;;;;;;1.52;0.20;;;24.80;99.80;;;;;;5095670;28;20024;-73
2022/08/15 06:43:31;;;;;;;5.18;0.32;;;24.80;99.50;;;;;;5094929;28;20016;-73
2022/08/15 06:46:01;;;;;;;1.25;0.38;;;24.90;98.90;;;;;;5095233;28;20035;-73
2022/08/15 06:48:33;;;;;;;1.65;1.05;;;25.10;98.90;;;;;;5094085;28;20376;-73
2022/08/15 06:51:02;;;;;;;2.70;0.22;;;25.20;98.70;;;;;;5087860;28;20043;-73
2022/08/15 06:53:36;;;;;;;;;;;25.30;97.50;;;;;;5082026;28;20032;-73
2022/08/15 06:56:16;;;;;;;0.75;0.17;;;25.30;97.70;;;;;;5074773;28;20363;-73
2022/08/15 06:58:56;;;;;;;0.85;0.20;;;25.40;96.90;;;;;;5077370;28;20025;-73
2022/08/15 07:01:48;;;;;;;2.63;0.20;;;25.40;96.60;;;;;;5078529;28;20038;-73
2022/08/15 07:04:17;;;;;;;1.52;0.35;;;25.50;96.30;;;;;;5076301;28;20029;-74
2022/08/15 07:07:04;;;;;;;2.10;0.13;;;25.60;96.00;;;;;;5083812;28;20051;-73
2022/08/15 07:09:54;;;;;;;2.53;0.20;;;25.70;95.40;;;;;;5094357;28;20499;-73
2022/08/15 07:12:28;;;;;;;1.17;0.73;;;25.80;95.00;;;;;;5093038;28;20362;-73
2022/08/15 07:15:09;;;;;;;2.80;0.75;;;25.70;94.40;;;;;;5096804;22;20052;-74
2022/08/15 07:17:46;;;;;;;1.65;0.20;;;25.80;92.30;;;;;;5071624;28;20480;-73
2022/08/15 07:20:12;;;;;;;1.42;0.68;;;25.70;92.60;;;;;;5073989;28;20024;-74
2022/08/15 07:22:39;;;;;;;1.95;0.50;;;25.70;92.10;;;;;;5085899;28;20028;-74
2022/08/15 07:25:10;;;;;;;3.17;0.40;;;25.70;92.30;;;;;;5094367;28;20365;-74
2022/08/15 07:27:36;;;;;;;2.95;0.47;;;25.80;92.00;;;;;;5094191;28;20035;-74
2022/08/15 07:30:20;;;;;;;7.53;0.35;;;25.80;91.90;;;;;;5092911;28;20392;-74
2022/08/15 07:32:55;;;;;;;0.55;0.20;;;25.80;91.90;;;;;;5093985;28;20028;-73
2022/08/15 07:35:24;;;;;;;3.92;0.28;;;25.80;92.40;;;;;;5093964;28;20028;-74
2022/08/15 07:37:51;;;;;;;1.73;0.20;;;25.90;92.70;;;;;;5094237;28;20032;-74
2022/08/15 07:40:23;;;;;;;2.17;0.20;;;26.00;92.40;;;;;;5093966;28;20041;-74
2022/08/15 07:42:49;;;;;;;0.98;0.20;;;26.10;90.90;;;;;;5093894;28;20100;-74
2022/08/15 07:45:26;;;;;;;2.30;0.20;;;26.10;90.50;;;;;;5093916;28;20058;-74
2022/08/15 07:47:54;;;;;;;2.60;0.30;;;25.90;91.20;;;;;;5094200;28;20028;-74
2022/08/15 07:50:32;;;;;;;3.20;0.70;;;25.70;91.50;;;;;;5093903;28;20626;-74
2022/08/15 07:53:18;;;;;;;1.27;0.20;;;25.70;90.70;;;;;;5094312;28;20544;-74
2022/08/15 07:56:12;;;;;;;0.93;0.40;;;25.50;91.50;;;;;;5094008;28;20472;-74
2022/08/15 07:58:39;;;;;;;1.98;0.08;;;25.60;91.10;;;;;;5094065;28;20392;-74
2022/08/15 08:01:30;;;;;;;1.75;0.30;;;25.70;91.30;;;;;;5093757;28;20023;-74
2022/08/15 08:04:05;;;;;;;1.75;0.28;;;25.80;90.30;;;;;;5093649;28;20024;-74
2022/08/15 08:06:52;;;;;;;1.45;0.20;;;25.90;90.70;;;;;;5092395;28;20074;-74
2022/08/15 08:09:36;;;;;;;2.33;0.80;;;25.80;90.40;;;;;;5093559;28;20028;-74
2022/08/15 08:12:43;;;;;;;0.68;0.32;;;25.70;91.00;;;;;;5093771;28;20254;-74
2022/08/15 08:15:40;;;;;;;0.40;0.30;;;25.50;90.80;;;;;;5092013;28;20028;-74
2022/08/15 08:18:16;;;;;;;1.02;0.40;;;25.40;91.20;;;;;;5093866;28;20059;-74
2022/08/15 08:20:51;;;;;;;2.47;0.32;;;25.50;91.30;;;;;;5094051;28;20016;-73
2022/08/15 08:23:33;;;;;;;0.50;0.22;;;25.70;91.40;;;;;;5093676;28;20024;-74
2022/08/15 08:26:17;;;;;;;1.08;0.20;;;26.00;91.00;;;;;;5093399;28;20399;-74
2022/08/15 08:28:51;;;;;;;1.23;0.30;;;26.00;89.70;;;;;;5093355;28;20031;-74
2022/08/15 08:31:28;;;;;;;1.83;0.57;;;25.90;90.00;;;;;;5093477;28;20052;-74
2022/08/15 08:34:16;;;;;;;0.52;0.25;;;25.80;90.10;;;;;;5092024;28;20031;-74
2022/08/15 08:37:37;;;;;;;1.35;0.32;;;25.90;90.00;;;;;;5093425;28;20036;-74
2022/08/15 08:43:08;;;;;;;0.80;0.22;;;26.10;90.00;;;;;;5093274;28;20073;-74
2022/08/15 08:45:44;;;;;;;4.32;0.73;;;26.10;88.60;;;;;;5093280;28;20058;-74
2022/08/15 08:48:31;;;;;;;4.07;0.38;;;26.20;88.00;;;;;;5093247;28;20388;-74
2022/08/15 08:51:14;;;;;;;3.78;0.50;;;26.30;87.40;;;;;;5093515;28;20365;-74
2022/08/15 08:53:55;;;;;;;4.60;0.63;;;26.40;88.90;;;;;;5093430;28;20043;-74
2022/08/15 08:56:36;;;;;;;1.40;0.32;;;26.60;87.30;;;;;;5093012;28;20024;-75
2022/08/15 08:59:21;;;;;;;1.50;0.50;;;26.60;84.90;;;;;;5091840;28;20017;-73
2022/08/15 09:01:58;;;;;;;2.70;0.65;;;26.50;86.10;;;;;;5091958;28;20054;-74
2022/08/15 09:04:39;;;;;;;0.97;0.37;;;26.50;86.90;;;;;;5092964;28;20021;-74
2022/08/15 09:07:07;;;;;;;2.70;0.55;;;26.50;88.40;;;;;;5093053;28;20593;-74
2022/08/15 09:09:39;;;;;;;1.20;0.30;;;26.60;87.00;;;;;;5092964;28;20066;-74
2022/08/15 09:15:03;;;;;;;0.50;0.50;;;26.90;86.90;;;;;;5093177;28;20089;-74
2022/08/15 09:17:33;;;;;;;1.10;0.68;;;27.10;88.60;;;;;;5093370;28;20054;-74
2022/08/15 09:20:13;;;;;;;2.95;0.85;;;27.00;88.90;;;;;;5093935;28;20021;-74
2022/08/15 09:22:39;;;;;;;3.42;0.68;;;26.90;89.20;;;;;;5095028;28;20058;-74
2022/08/15 09:25:07;;;;;;;1.98;0.68;;;26.90;88.30;;;;;;5096429;28;20032;-74
2022/08/15 09:28:02;;;;;;;1.05;0.55;;;26.80;89.20;;;;;;5096375;28;20031;-73
2022/08/15 09:30:28;;;;;;;2.55;0.80;;;26.80;89.50;;;;;;5072936;28;20435;-73
2022/08/15 09:33:22;;;;;;;3.78;1.17;;;26.80;90.20;;;;;;5096336;28;20040;-74
2022/08/15 09:36:28;;;;;;;3.60;1.42;;;26.70;90.30;;;;;;5096423;28;20024;-74
2022/08/15 09:39:25;;;;;;;2.10;0.85;;;26.90;90.60;;;;;;5096373;28;20488;-74
2022/08/15 09:42:27;;;;;;;1.58;0.52;;;27.10;90.70;;;;;;5096653;28;20028;-74
2022/08/15 09:45:13;;;;;;;2.83;0.75;;;27.20;89.00;;;;;;5096561;28;20101;-75
2022/08/15 09:47:57;;;;;;;3.33;0.63;;;27.30;89.90;;;;;;5096441;28;20024;-74
2022/08/15 09:50:52;;;;;;;4.43;0.70;;;27.30;89.00;;;;;;5094888;28;20024;-75
2022/08/15 09:53:21;;;;;;;9.57;1.58;;;27.30;87.20;;;;;;5095990;28;20024;-75
2022/08/15 09:55:48;;;;;;;2.35;0.90;;;27.10;86.60;;;;;;5095883;28;20031;-75
2022/08/15 09:58:19;;;;;;;3.07;0.90;;;27.00;87.60;;;;;;5096201;28;20020;-74
2022/08/15 10:01:15;;;;;;;0.88;0.88;;;27.00;87.80;;;;;;5096470;28;20012;-75
2022/08/15 10:03:44;;;;;;;1.85;1.27;;;26.80;90.10;;;;;;5087820;28;20039;-74
2022/08/15 10:06:11;;;;;;;;;;;26.70;90.70;;;;;;5096134;28;20385;-74
2022/08/15 10:08:54;;;;;;;2.35;1.10;;;26.90;91.10;;;;;;5095697;28;19904;-74
2022/08/15 10:11:32;;;;;;;4.25;3.08;;;27.00;91.10;;;;;;5095349;28;20413;-75
2022/08/15 10:14:07;;;;;;;3.30;1.90;;;26.90;91.00;;;;;;5094362;28;20043;-75
2022/08/15 10:16:39;;;;;;;4.70;1.73;;;27.00;91.40;;;;;;5095852;28;20388;-74
2022/08/15 10:19:37;;;;;;;5.53;2.35;;;27.10;91.90;;;;;;5095539;28;20023;-75
2022/08/15 10:22:22;;;;;;;5.07;3.47;;;27.40;91.60;;;;;;5078469;28;20493;-75
2022/08/15 10:25:12;;;;;;;5.65;2.90;;;27.50;91.30;;;;;;5093953;28;20028;-74
2022/08/15 10:28:05;;;;;;;4.30;2.58;;;27.40;91.10;;;;;;5095426;28;20021;-74
2022/08/15 10:30:34;;;;;;;6.28;2.78;;;27.30;90.70;;;;;;5095376;28;20096;-74
2022/08/15 10:33:01;;;;;;;4.28;3.13;;;27.20;90.40;;;;;;5095130;28;20024;-74
2022/08/15 10:35:41;;;;;;;3.80;2.35;;;27.20;90.70;;;;;;5093909;28;20023;-74
2022/08/15 10:38:09;;;;;;;7.20;3.17;;;27.10;91.20;;;;;;5095483;28;20032;-74
2022/08/15 10:41:07;;;;;;;5.00;3.33;;;27.10;91.80;;;;;;5095117;28;20095;-74
2022/08/15 10:43:51;;;;;;;11.30;2.55;;;27.00;91.70;;;;;;5042027;28;20504;-74
2022/08/15 10:46:38;;;;;;;7.13;2.75;;;27.10;92.10;;;;;;5095423;28;20542;-72
2022/08/15 10:49:35;;;;;;;9.45;4.00;;;27.10;91.90;;;;;;5093702;28;20032;-73
2022/08/15 10:52:07;;;;;;;6.38;4.05;;;27.00;92.00;;;;;;5094969;28;20032;-73
2022/08/15 10:55:12;;;;;;;6.22;3.53;;;26.80;92.10;;;;;;5095340;28;20103;-73
2022/08/15 10:57:51;;;;;;;5.75;3.47;;;26.70;92.60;;;;;;5093410;28;20027;-73
2022/08/15 11:00:42;;;;;;;7.00;3.63;;;26.60;92.10;;;;;;5094711;28;20024;-73
2022/08/15 11:03:20;;;;;;;6.38;4.05;;;26.50;93.00;;;;;;5065618;28;20484;-73
2022/08/15 11:06:05;;;;;;;10.00;3.78;;;26.50;93.30;;;;;;5094849;28;20499;-73
2022/08/15 11:08:31;;;;;;;6.53;4.07;;;26.40;93.10;;;;;;5094847;28;20074;-73
2022/08/15 11:11:05;;;;;;;6.47;3.97;;;26.40;93.20;;;;;;5094551;28;20024;-73
2022/08/15 11:13:31;;;;;;;8.13;3.78;;;26.40;93.70;;;;;;5095229;28;20031;-73
2022/08/15 11:16:07;;;;;;;6.53;4.60;;;26.30;93.90;;;;;;5094315;28;20016;-73
2022/08/15 11:18:43;;;;;;;6.55;3.92;;;26.40;93.70;;;;;;5095011;28;20477;-73
2022/08/15 11:21:37;;;;;;;6.25;3.40;;;26.30;93.10;;;;;;5095045;28;20047;-73
2022/08/15 11:24:08;;;;;;;6.78;3.35;;;26.10;93.30;;;;;;5092971;28;20418;-73
2022/08/15 11:26:38;;;;;;;10.77;4.38;;;26.10;93.50;;;;;;5093294;28;20061;-73
2022/08/15 11:29:10;;;;;;;13.40;4.63;;;26.00;93.50;;;;;;5094070;28;20028;-73
2022/08/15 11:31:49;;;;;;;7.80;3.17;;;26.00;93.50;;;;;;5092866;28;20024;-73
2022/08/15 11:34:25;;;;;;;8.98;3.75;;;26.00;94.20;;;;;;5092808;28;20024;-73
2022/08/15 11:37:13;;;;;;;6.63;3.47;;;26.10;94.00;;;;;;5094688;28;20055;-73
2022/08/15 11:39:43;;;;;;;8.73;3.92;;;26.30;94.20;;;;;;5093419;28;20445;-73
2022/08/15 11:42:14;;;;;;;10.27;3.22;;;26.40;93.50;;;;;;5092548;28;20023;-73
2022/08/15 11:44:53;;;;;;;10.85;4.35;;;26.50;93.80;;;;;;5093554;28;20512;-73
2022/08/15 11:47:20;;;;;;;5.00;3.30;;;26.70;93.90;;;;;;5093880;28;20028;-73
2022/08/15 11:49:57;;;;;;;7.30;4.10;;;26.80;94.00;;;;;;5093782;28;20024;-73
2022/08/15 11:52:36;;;;;;;11.07;4.35;;;26.80;93.40;;;;;;5093755;28;20074;-73
2022/08/15 11:55:39;;;;;;;8.15;4.75;;;26.80;93.10;;;;;;5093982;28;20472;-73
2022/08/15 11:58:13;;;;;;;7.13;4.80;;;26.60;93.10;;;;;;5031463;28;20029;-73
2022/08/15 12:00:51;;;;;;;8.70;4.38;;;26.50;93.40;;;;;;5085064;28;20044;-73
2022/08/15 12:03:30;;;;;;;6.32;3.70;;;26.50;93.30;;;;;;5079796;28;20401;-73
2022/08/15 12:06:14;;;;;;;6.78;4.20;;;26.50;93.20;;;;;;5090823;28;20031;-73
2022/08/15 12:08:43;;;;;;;9.40;4.93;;;26.50;93.40;;;;;;5093459;28;20123;-73
2022/08/15 12:11:24;;;;;;;8.10;3.60;;;26.70;93.00;;;;;;5093825;28;20484;-73
2022/08/15 12:14:03;;;;;;;5.07;1.92;;;26.70;92.20;;;;;;5093374;28;20024;-73
2022/08/15 12:16:31;;;;;;;;;;;26.70;91.50;;;;;;5092497;28;20434;-73
2022/08/15 12:18:57;;;;;;;;;;;26.70;92.00;;;;;;5093777;28;19910;-73
2022/08/15 12:21:23;;;;;;;3.42;1.95;;;26.70;91.60;;;;;;5093376;28;19926;-73
2022/08/15 12:23:57;;;;;;;3.05;1.92;;;26.50;91.40;;;;;;5093296;28;20461;-73
2022/08/15 12:26:28;;;;;;;4.55;2.60;;;26.40;91.80;;;;;;5093248;28;20021;-73
2022/08/15 12:28:57;;;;;;;3.85;2.70;;;26.40;92.00;;;;;;5093302;28;20481;-73
2022/08/15 12:31:25;;;;;;;5.65;2.30;;;26.30;92.50;;;;;;5092047;28;20382;-73
2022/08/15 12:34:09;;;;;;;6.63;2.20;;;26.20;92.90;;;;;;5093620;28;20358;-73
2022/08/15 12:36:36;;;;;;;6.40;2.55;;;26.20;92.10;;;;;;5093425;28;20067;-73
2022/08/15 12:39:02;;;;;;;9.18;2.70;;;26.20;92.60;;;;;;5093456;28;20103;-73
2022/08/15 12:41:29;;;;;;;4.25;1.63;;;26.20;92.90;;;;;;5093169;28;20028;-73
2022/08/15 12:43:55;;;;;;;3.58;2.05;;;26.20;92.60;;;;;;5093202;28;20485;-73
2022/08/15 12:46:21;;;;;;;5.03;3.00;;;26.30;92.30;;;;;;5093319;28;20047;-73
2022/08/15 12:48:48;;;;;;;1.75;1.25;;;26.40;91.60;;;;;;5093037;28;20031;-73
2022/08/15 12:51:15;;;;;;;3.55;2.05;;;26.40;92.20;;;;;;5093348;28;20028;-74
2022/08/15 12:53:41;;;;;;;6.47;1.80;;;26.50;92.80;;;;;;5093170;28;20124;-73
2022/08/15 12:56:08;;;;;;;5.50;1.48;;;26.80;91.20;;;;;;5093034;28;20539;-73
2022/08/15 12:58:35;;;;;;;6.20;1.80;;;26.80;90.90;;;;;;5095307;28;20024;-73
2022/08/15 13:01:01;;;;;;;2.38;1.52;;;26.80;91.00;;;;;;5095719;28;20023;-73
2022/08/15 13:03:29;;;;;;;6.45;1.63;;;26.80;91.50;;;;;;5096896;28;20465;-73
2022/08/15 13:06:07;;;;;;;3.72;1.17;;;26.50;91.40;;;;;;5097065;28;20126;-73
2022/08/15 13:08:33;;;;;;;;;;;27.00;91.00;;;;;;5096062;28;20035;-73
2022/08/15 13:10:58;;;;;;;5.13;2.47;;;27.00;90.40;;;;;;5096831;28;20300;-74
2022/08/15 13:13:24;;;;;;;2.67;1.17;;;26.90;90.60;;;;;;5096522;28;20043;-73
2022/08/15 13:15:50;;;;;;;4.28;2.35;;;26.80;90.80;;;;;;5097054;28;20029;-73
2022/08/15 13:18:20;;;;;;;2.53;1.90;;;26.80;91.20;;;;;;5096689;28;20020;-73
2022/08/15 13:23:40;;;;;;;4.55;1.92;;;26.60;91.20;;;;;;5097368;28;20062;-73
2022/08/15 13:26:12;;;;;;;4.63;2.65;;;26.60;91.40;;;;;;5096660;28;20027;-73
2022/08/15 13:28:40;;;;;;;4.32;2.30;;;26.40;91.40;;;;;;5096830;28;20534;-73
2022/08/15 13:31:07;;;;;;;4.97;2.72;;;26.40;91.60;;;;;;5096478;28;20035;-73